createdAt,value
2019-06-15T00:02:04.884Z,99.90
2019-06-15T00:12:06.174Z,99.90
2019-06-15T00:22:07.483Z,99.90
2019-06-15T00:32:08.766Z,99.90
2019-06-15T00:42:10.053Z,99.90
2019-06-15T00:52:11.343Z,99.90
2019-06-15T01:02:12.596Z,99.90
2019-06-15T01:12:14.651Z,99.90
2019-06-15T01:22:15.948Z,99.90
2019-06-15T01:32:17.218Z,99.90
2019-06-15T01:42:18.613Z,99.90
2019-06-15T01:52:20.672Z,99.90
2019-06-15T02:02:21.970Z,99.90
2019-06-15T02:12:23.276Z,99.90
2019-06-15T02:22:24.570Z,99.90
2019-06-15T02:32:25.854Z,99.90
2019-06-15T02:42:27.158Z,99.90
2019-06-15T02:52:28.453Z,99.90
2019-06-15T03:02:29.783Z,99.90
2019-06-15T03:12:31.050Z,99.90
2019-06-15T03:22:32.314Z,99.90
2019-06-15T03:32:33.559Z,99.90
2019-06-15T03:42:38.866Z,99.90
2019-06-15T03:52:40.140Z,99.90
2019-06-15T04:02:41.426Z,99.90
2019-06-15T04:12:42.728Z,99.90
2019-06-15T04:22:44.067Z,99.90
2019-06-15T04:32:45.352Z,99.90
2019-06-15T04:42:46.643Z,99.90
2019-06-15T05:13:07.727Z,99.90
2019-06-15T05:53:34.226Z,99.90
2019-06-15T06:03:38.811Z,99.90
2019-06-15T06:13:40.161Z,99.90
2019-06-15T06:23:42.404Z,99.90
2019-06-15T06:33:44.450Z,99.90
2019-06-15T06:43:45.733Z,99.90
2019-06-15T06:53:47.069Z,99.90
2019-06-15T07:03:48.516Z,99.90
2019-06-15T07:13:49.922Z,99.90
2019-06-15T07:23:51.222Z,99.90
2019-06-15T07:33:52.494Z,99.90
2019-06-15T07:43:54.562Z,99.90
2019-06-15T07:53:55.853Z,99.90
2019-06-15T08:03:57.402Z,99.90
2019-06-15T08:14:04.237Z,73.20
2019-06-15T08:24:06.287Z,68.30
2019-06-15T08:34:07.611Z,68.10
2019-06-15T08:44:09.136Z,60.50
2019-06-15T09:14:27.781Z,71.50
2019-06-15T09:34:37.337Z,62.80
2019-06-15T09:44:40.486Z,58.70
2019-06-15T09:54:42.544Z,57.40
2019-06-15T10:04:43.851Z,57.40
2019-06-15T10:14:45.152Z,48.30
2019-06-15T10:24:46.476Z,43.10
2019-06-15T10:34:48.533Z,50.50
2019-06-15T10:44:49.834Z,50.40
2019-06-15T10:54:59.787Z,49.90
2019-06-15T11:05:01.852Z,52.80
2019-06-15T11:45:26.246Z,56.40
2019-06-15T11:55:38.998Z,57.10
2019-06-15T12:05:30.557Z,54.20
2019-06-15T12:15:31.852Z,54.10
2019-06-15T12:25:33.142Z,56.70
2019-06-15T12:35:34.442Z,57.50
2019-06-15T12:45:35.846Z,58.40
2019-06-15T13:05:48.395Z,65.50
2019-06-15T13:15:50.434Z,65.90
2019-06-15T13:25:51.877Z,65.90
2019-06-15T13:35:53.043Z,67.70
2019-06-15T13:45:54.335Z,67.10
2019-06-15T13:55:55.631Z,65.10
2019-06-15T14:16:05.143Z,62.00
2019-06-15T14:26:07.204Z,62.80
2019-06-15T14:46:15.677Z,57.30
2019-06-15T14:56:17.456Z,60.50
2019-06-15T15:16:30.122Z,62.00
2019-06-15T15:26:32.158Z,65.20
2019-06-15T15:36:33.532Z,65.20
2019-06-15T15:46:35.605Z,65.10
2019-06-15T15:56:36.943Z,65.10
2019-06-15T16:06:39.019Z,67.10
2019-06-15T16:26:47.239Z,65.30
2019-06-15T16:36:48.530Z,66.00
2019-06-15T16:46:49.862Z,66.00
2019-06-15T17:07:03.727Z,62.10
2019-06-15T17:17:05.505Z,62.90
2019-06-15T17:27:06.303Z,62.90
2019-06-15T17:37:07.591Z,65.10
2019-06-15T17:47:09.254Z,65.60
2019-06-15T17:57:10.606Z,68.00
2019-06-15T18:07:11.895Z,71.70
2019-06-15T18:27:21.169Z,84.20
2019-06-15T18:37:23.229Z,99.90
2019-06-15T18:47:26.574Z,99.90
2019-06-15T18:57:29.124Z,99.90
2019-06-15T19:07:30.510Z,99.90
2019-06-15T19:17:31.770Z,99.90
2019-06-15T19:27:33.214Z,99.90
2019-06-15T19:37:36.961Z,99.90
2019-06-15T19:47:37.837Z,99.90
2019-06-15T19:57:37.306Z,99.90
2019-06-15T20:07:38.597Z,99.90
2019-06-15T20:17:39.886Z,99.90
2019-06-15T20:27:41.168Z,99.90
2019-06-15T20:47:49.352Z,99.90
2019-06-15T20:57:51.393Z,99.90
2019-06-15T21:07:52.660Z,99.90
2019-06-15T21:17:56.932Z,99.90
2019-06-15T21:27:56.729Z,99.90
2019-06-15T21:37:57.368Z,99.90
2019-06-15T21:47:59.404Z,99.90
2019-06-15T21:58:00.687Z,99.90
2019-06-15T22:08:02.012Z,99.90
2019-06-15T22:18:06.789Z,99.90
2019-06-15T22:28:06.975Z,99.90
2019-06-15T22:38:07.989Z,99.90
2019-06-15T22:48:09.270Z,99.90
2019-06-15T22:58:10.562Z,99.90
2019-06-15T23:08:11.835Z,99.90
2019-06-15T23:18:13.965Z,99.90
2019-06-15T23:28:16.541Z,99.90
2019-06-15T23:38:16.581Z,99.90
2019-06-15T23:48:17.870Z,99.90
2019-06-15T23:58:19.143Z,99.90
